sensor_id;sensor_type;location;lat;lon;timestamp;temperature;humidity
10121;DHT22;5100;45.176;5.714;2022-09-03T00:01:15;24.30;70.80
10121;DHT22;5100;45.176;5.714;2022-09-03T00:03:48;24.40;70.70
10121;DHT22;5100;45.176;5.714;2022-09-03T00:06:25;24.30;70.60
10121;DHT22;5100;45.176;5.714;2022-09-03T00:09:02;24.30;70.70
10121;DHT22;5100;45.176;5.714;2022-09-03T00:11:41;24.30;70.70
10121;DHT22;5100;45.176;5.714;2022-09-03T00:14:41;24.30;70.80
10121;DHT22;5100;45.176;5.714;2022-09-03T00:17:15;24.30;70.80
10121;DHT22;5100;45.176;5.714;2022-09-03T00:20:00;24.30;70.60
10121;DHT22;5100;45.176;5.714;2022-09-03T00:22:32;24.30;70.40
10121;DHT22;5100;45.176;5.714;2022-09-03T00:25:02;24.30;70.60
10121;DHT22;5100;45.176;5.714;2022-09-03T00:27:31;24.30;70.60
10121;DHT22;5100;45.176;5.714;2022-09-03T00:30:04;24.30;70.60
10121;DHT22;5100;45.176;5.714;2022-09-03T00:33:04;24.30;70.60
10121;DHT22;5100;45.176;5.714;2022-09-03T00:35:40;24.30;70.70
10121;DHT22;5100;45.176;5.714;2022-09-03T00:38:08;24.30;70.50
10121;DHT22;5100;45.176;5.714;2022-09-03T00:46:05;24.30;70.80
10121;DHT22;5100;45.176;5.714;2022-09-03T00:48:59;24.30;70.80
10121;DHT22;5100;45.176;5.714;2022-09-03T00:57:14;24.30;70.70
10121;DHT22;5100;45.176;5.714;2022-09-03T01:00:12;24.20;70.80
10121;DHT22;5100;45.176;5.714;2022-09-03T01:13:40;24.20;71.20
10121;DHT22;5100;45.176;5.714;2022-09-03T01:16:31;24.20;71.20
10121;DHT22;5100;45.176;5.714;2022-09-03T01:30:39;24.20;71.70
10121;DHT22;5100;45.176;5.714;2022-09-03T01:33:28;24.20;71.70
10121;DHT22;5100;45.176;5.714;2022-09-03T01:36:07;24.20;71.80
10121;DHT22;5100;45.176;5.714;2022-09-03T01:50:24;24.20;71.90
10121;DHT22;5100;45.176;5.714;2022-09-03T01:53:00;24.20;72.00
10121;DHT22;5100;45.176;5.714;2022-09-03T01:55:35;24.20;72.30
10121;DHT22;5100;45.176;5.714;2022-09-03T01:58:30;24.20;72.20
10121;DHT22;5100;45.176;5.714;2022-09-03T02:00:59;24.20;72.20
10121;DHT22;5100;45.176;5.714;2022-09-03T02:03:37;24.20;72.20
10121;DHT22;5100;45.176;5.714;2022-09-03T02:06:04;24.20;72.20
10121;DHT22;5100;45.176;5.714;2022-09-03T02:08:32;24.20;72.20
10121;DHT22;5100;45.176;5.714;2022-09-03T02:10:58;24.20;72.40
10121;DHT22;5100;45.176;5.714;2022-09-03T02:13:40;24.20;72.30
10121;DHT22;5100;45.176;5.714;2022-09-03T02:16:16;24.20;72.50
10121;DHT22;5100;45.176;5.714;2022-09-03T02:18:49;24.20;72.60
10121;DHT22;5100;45.176;5.714;2022-09-03T02:21:20;24.20;72.70
10121;DHT22;5100;45.176;5.714;2022-09-03T02:23:48;24.20;72.60
10121;DHT22;5100;45.176;5.714;2022-09-03T02:26:22;24.30;72.40
10121;DHT22;5100;45.176;5.714;2022-09-03T02:28:50;24.30;72.30
10121;DHT22;5100;45.176;5.714;2022-09-03T02:31:16;24.30;72.30
10121;DHT22;5100;45.176;5.714;2022-09-03T02:33:44;24.20;72.30
10121;DHT22;5100;45.176;5.714;2022-09-03T02:36:13;24.20;72.20
10121;DHT22;5100;45.176;5.714;2022-09-03T02:38:44;24.20;72.20
10121;DHT22;5100;45.176;5.714;2022-09-03T02:41:10;24.20;72.30
10121;DHT22;5100;45.176;5.714;2022-09-03T02:43:41;24.20;72.10
10121;DHT22;5100;45.176;5.714;2022-09-03T02:46:14;24.20;72.10
10121;DHT22;5100;45.176;5.714;2022-09-03T02:48:41;24.20;72.20
10121;DHT22;5100;45.176;5.714;2022-09-03T02:51:07;24.20;72.20
10121;DHT22;5100;45.176;5.714;2022-09-03T02:53:33;24.20;72.20
10121;DHT22;5100;45.176;5.714;2022-09-03T02:56:00;24.20;72.20
10121;DHT22;5100;45.176;5.714;2022-09-03T02:58:27;24.20;72.00
10121;DHT22;5100;45.176;5.714;2022-09-03T03:00:54;24.20;71.60
10121;DHT22;5100;45.176;5.714;2022-09-03T03:03:20;24.20;71.50
10121;DHT22;5100;45.176;5.714;2022-09-03T03:05:51;24.20;71.40
10121;DHT22;5100;45.176;5.714;2022-09-03T03:08:19;24.20;71.40
10121;DHT22;5100;45.176;5.714;2022-09-03T03:10:52;24.20;71.40
10121;DHT22;5100;45.176;5.714;2022-09-03T03:13:18;24.20;71.40
10121;DHT22;5100;45.176;5.714;2022-09-03T03:15:44;24.20;71.50
10121;DHT22;5100;45.176;5.714;2022-09-03T03:18:13;24.20;71.60
10121;DHT22;5100;45.176;5.714;2022-09-03T03:20:40;24.10;71.70
10121;DHT22;5100;45.176;5.714;2022-09-03T03:23:07;24.20;71.70
10121;DHT22;5100;45.176;5.714;2022-09-03T03:25:34;24.10;71.70
10121;DHT22;5100;45.176;5.714;2022-09-03T03:28:01;24.10;71.80
10121;DHT22;5100;45.176;5.714;2022-09-03T03:30:29;24.10;71.90
10121;DHT22;5100;45.176;5.714;2022-09-03T03:32:55;24.10;72.00
10121;DHT22;5100;45.176;5.714;2022-09-03T03:35:22;24.10;72.00
10121;DHT22;5100;45.176;5.714;2022-09-03T03:37:48;24.10;71.90
10121;DHT22;5100;45.176;5.714;2022-09-03T03:40:14;24.10;71.90
10121;DHT22;5100;45.176;5.714;2022-09-03T03:42:41;24.10;72.00
10121;DHT22;5100;45.176;5.714;2022-09-03T03:45:07;24.10;72.10
10121;DHT22;5100;45.176;5.714;2022-09-03T03:47:35;24.10;72.20
10121;DHT22;5100;45.176;5.714;2022-09-03T03:50:03;24.10;72.20
10121;DHT22;5100;45.176;5.714;2022-09-03T03:52:29;24.10;72.10
10121;DHT22;5100;45.176;5.714;2022-09-03T03:54:57;24.10;72.00
10121;DHT22;5100;45.176;5.714;2022-09-03T03:57:23;24.10;71.80
10121;DHT22;5100;45.176;5.714;2022-09-03T03:59:49;24.10;71.80
10121;DHT22;5100;45.176;5.714;2022-09-03T04:02:16;24.10;71.70
10121;DHT22;5100;45.176;5.714;2022-09-03T04:04:43;24.10;71.70
10121;DHT22;5100;45.176;5.714;2022-09-03T04:07:09;24.00;71.70
10121;DHT22;5100;45.176;5.714;2022-09-03T04:09:35;24.00;71.90
10121;DHT22;5100;45.176;5.714;2022-09-03T04:12:02;24.00;72.00
10121;DHT22;5100;45.176;5.714;2022-09-03T04:14:33;24.00;71.80
10121;DHT22;5100;45.176;5.714;2022-09-03T04:17:00;23.90;71.80
10121;DHT22;5100;45.176;5.714;2022-09-03T04:19:27;23.90;71.80
10121;DHT22;5100;45.176;5.714;2022-09-03T04:21:57;23.80;72.00
10121;DHT22;5100;45.176;5.714;2022-09-03T04:24:22;23.80;72.10
10121;DHT22;5100;45.176;5.714;2022-09-03T04:26:49;23.80;72.20
10121;DHT22;5100;45.176;5.714;2022-09-03T04:29:15;23.80;72.30
10121;DHT22;5100;45.176;5.714;2022-09-03T04:31:42;23.80;72.40
10121;DHT22;5100;45.176;5.714;2022-09-03T04:34:28;23.80;72.30
10121;DHT22;5100;45.176;5.714;2022-09-03T04:36:54;23.80;72.30
10121;DHT22;5100;45.176;5.714;2022-09-03T04:39:22;23.80;72.30
10121;DHT22;5100;45.176;5.714;2022-09-03T04:41:48;23.80;72.30
10121;DHT22;5100;45.176;5.714;2022-09-03T04:44:15;23.80;72.30
10121;DHT22;5100;45.176;5.714;2022-09-03T04:46:41;23.80;72.30
10121;DHT22;5100;45.176;5.714;2022-09-03T04:49:07;23.80;72.40
10121;DHT22;5100;45.176;5.714;2022-09-03T04:51:34;23.80;72.50
10121;DHT22;5100;45.176;5.714;2022-09-03T04:54:03;23.80;72.50
10121;DHT22;5100;45.176;5.714;2022-09-03T04:56:31;23.80;72.40
10121;DHT22;5100;45.176;5.714;2022-09-03T04:59:06;23.80;72.40
10121;DHT22;5100;45.176;5.714;2022-09-03T05:01:35;23.80;72.30
10121;DHT22;5100;45.176;5.714;2022-09-03T05:04:02;23.80;72.20
10121;DHT22;5100;45.176;5.714;2022-09-03T05:06:30;23.80;72.30
10121;DHT22;5100;45.176;5.714;2022-09-03T05:08:58;23.80;72.20
10121;DHT22;5100;45.176;5.714;2022-09-03T05:11:25;23.80;72.20
10121;DHT22;5100;45.176;5.714;2022-09-03T05:13:54;23.80;72.30
10121;DHT22;5100;45.176;5.714;2022-09-03T05:16:21;23.80;72.30
10121;DHT22;5100;45.176;5.714;2022-09-03T05:18:51;23.80;72.40
10121;DHT22;5100;45.176;5.714;2022-09-03T05:21:19;23.80;72.60
10121;DHT22;5100;45.176;5.714;2022-09-03T05:23:47;23.80;72.60
10121;DHT22;5100;45.176;5.714;2022-09-03T05:26:16;23.70;72.60
10121;DHT22;5100;45.176;5.714;2022-09-03T05:28:43;23.70;72.50
10121;DHT22;5100;45.176;5.714;2022-09-03T05:33:47;23.80;72.30
10121;DHT22;5100;45.176;5.714;2022-09-03T05:36:16;23.80;72.30
10121;DHT22;5100;45.176;5.714;2022-09-03T05:38:44;23.80;72.30
10121;DHT22;5100;45.176;5.714;2022-09-03T05:41:12;23.80;72.30
10121;DHT22;5100;45.176;5.714;2022-09-03T05:43:39;23.80;72.40
10121;DHT22;5100;45.176;5.714;2022-09-03T05:46:08;23.80;72.20
10121;DHT22;5100;45.176;5.714;2022-09-03T05:48:36;23.80;72.10
10121;DHT22;5100;45.176;5.714;2022-09-03T05:51:14;23.80;72.10
10121;DHT22;5100;45.176;5.714;2022-09-03T05:53:44;23.80;72.10
10121;DHT22;5100;45.176;5.714;2022-09-03T05:56:16;23.80;72.00
10121;DHT22;5100;45.176;5.714;2022-09-03T05:58:45;23.90;71.90
10121;DHT22;5100;45.176;5.714;2022-09-03T06:01:16;23.90;71.80
10121;DHT22;5100;45.176;5.714;2022-09-03T06:03:44;23.90;71.80
10121;DHT22;5100;45.176;5.714;2022-09-03T06:06:11;23.90;71.80
10121;DHT22;5100;45.176;5.714;2022-09-03T06:08:38;23.90;71.70
10121;DHT22;5100;45.176;5.714;2022-09-03T06:11:05;24.00;71.60
10121;DHT22;5100;45.176;5.714;2022-09-03T06:13:32;24.00;71.60
10121;DHT22;5100;45.176;5.714;2022-09-03T06:16:00;24.10;71.60
10121;DHT22;5100;45.176;5.714;2022-09-03T06:18:28;24.10;71.60
10121;DHT22;5100;45.176;5.714;2022-09-03T06:21:05;24.10;71.70
10121;DHT22;5100;45.176;5.714;2022-09-03T06:23:33;24.10;71.80
10121;DHT22;5100;45.176;5.714;2022-09-03T06:28:34;24.10;71.90
10121;DHT22;5100;45.176;5.714;2022-09-03T06:31:03;24.10;72.00
10121;DHT22;5100;45.176;5.714;2022-09-03T06:33:31;24.10;72.00
10121;DHT22;5100;45.176;5.714;2022-09-03T06:35:59;24.10;72.10
10121;DHT22;5100;45.176;5.714;2022-09-03T06:38:28;24.10;72.10
10121;DHT22;5100;45.176;5.714;2022-09-03T06:40:58;24.00;72.20
10121;DHT22;5100;45.176;5.714;2022-09-03T06:43:30;23.90;72.40
10121;DHT22;5100;45.176;5.714;2022-09-03T06:45:58;23.90;72.70
10121;DHT22;5100;45.176;5.714;2022-09-03T06:48:25;23.90;72.90
10121;DHT22;5100;45.176;5.714;2022-09-03T06:50:57;23.90;73.00
10121;DHT22;5100;45.176;5.714;2022-09-03T06:53:30;24.00;72.90
10121;DHT22;5100;45.176;5.714;2022-09-03T06:56:00;24.00;72.50
10121;DHT22;5100;45.176;5.714;2022-09-03T06:58:31;23.90;72.30
10121;DHT22;5100;45.176;5.714;2022-09-03T07:01:02;23.90;72.40
10121;DHT22;5100;45.176;5.714;2022-09-03T07:03:29;23.80;72.50
10121;DHT22;5100;45.176;5.714;2022-09-03T07:06:00;23.80;72.50
10121;DHT22;5100;45.176;5.714;2022-09-03T07:08:26;23.80;72.30
10121;DHT22;5100;45.176;5.714;2022-09-03T07:10:52;23.80;72.40
10121;DHT22;5100;45.176;5.714;2022-09-03T07:13:18;23.80;72.40
10121;DHT22;5100;45.176;5.714;2022-09-03T07:15:45;23.80;72.70
10121;DHT22;5100;45.176;5.714;2022-09-03T07:18:11;23.70;72.90
10121;DHT22;5100;45.176;5.714;2022-09-03T07:20:37;23.70;72.80
10121;DHT22;5100;45.176;5.714;2022-09-03T07:23:03;23.70;72.90
10121;DHT22;5100;45.176;5.714;2022-09-03T07:25:29;23.70;72.90
10121;DHT22;5100;45.176;5.714;2022-09-03T07:27:56;23.70;72.80
10121;DHT22;5100;45.176;5.714;2022-09-03T07:30:23;23.70;72.80
10121;DHT22;5100;45.176;5.714;2022-09-03T07:32:51;23.80;72.60
10121;DHT22;5100;45.176;5.714;2022-09-03T07:35:18;23.90;72.20
10121;DHT22;5100;45.176;5.714;2022-09-03T07:37:45;23.90;71.80
10121;DHT22;5100;45.176;5.714;2022-09-03T07:40:11;24.00;71.80
10121;DHT22;5100;45.176;5.714;2022-09-03T07:42:37;24.00;71.70
10121;DHT22;5100;45.176;5.714;2022-09-03T07:45:06;24.10;71.50
10121;DHT22;5100;45.176;5.714;2022-09-03T07:47:35;24.10;71.40
10121;DHT22;5100;45.176;5.714;2022-09-03T07:50:03;24.20;71.40
10121;DHT22;5100;45.176;5.714;2022-09-03T07:52:30;24.20;71.20
10121;DHT22;5100;45.176;5.714;2022-09-03T07:54:56;24.20;70.80
10121;DHT22;5100;45.176;5.714;2022-09-03T07:57:21;24.30;70.60
10121;DHT22;5100;45.176;5.714;2022-09-03T07:59:48;24.30;70.00
10121;DHT22;5100;45.176;5.714;2022-09-03T08:02:14;24.30;69.50
10121;DHT22;5100;45.176;5.714;2022-09-03T08:04:40;24.40;69.20
10121;DHT22;5100;45.176;5.714;2022-09-03T08:07:06;24.40;69.00
10121;DHT22;5100;45.176;5.714;2022-09-03T08:09:32;24.40;68.90
10121;DHT22;5100;45.176;5.714;2022-09-03T08:11:58;24.40;68.80
10121;DHT22;5100;45.176;5.714;2022-09-03T08:14:24;24.50;68.70
10121;DHT22;5100;45.176;5.714;2022-09-03T08:16:50;24.50;68.80
10121;DHT22;5100;45.176;5.714;2022-09-03T08:19:17;24.50;68.70
10121;DHT22;5100;45.176;5.714;2022-09-03T08:21:43;24.60;68.70
10121;DHT22;5100;45.176;5.714;2022-09-03T08:24:11;24.60;68.90
10121;DHT22;5100;45.176;5.714;2022-09-03T08:26:41;24.60;68.80
10121;DHT22;5100;45.176;5.714;2022-09-03T08:29:07;24.60;68.70
10121;DHT22;5100;45.176;5.714;2022-09-03T08:31:34;24.60;68.80
10121;DHT22;5100;45.176;5.714;2022-09-03T08:34:02;24.60;68.40
10121;DHT22;5100;45.176;5.714;2022-09-03T08:36:33;24.60;68.20
10121;DHT22;5100;45.176;5.714;2022-09-03T08:39:00;24.60;68.10
10121;DHT22;5100;45.176;5.714;2022-09-03T08:41:39;24.60;68.10
10121;DHT22;5100;45.176;5.714;2022-09-03T08:47:11;24.70;68.00
10121;DHT22;5100;45.176;5.714;2022-09-03T08:49:49;24.70;67.80
10121;DHT22;5100;45.176;5.714;2022-09-03T08:52:45;24.70;67.60
10121;DHT22;5100;45.176;5.714;2022-09-03T08:55:27;24.70;68.00
10121;DHT22;5100;45.176;5.714;2022-09-03T08:58:12;24.70;67.80
10121;DHT22;5100;45.176;5.714;2022-09-03T09:01:06;24.80;67.70
10121;DHT22;5100;45.176;5.714;2022-09-03T09:14:44;24.90;67.40
10121;DHT22;5100;45.176;5.714;2022-09-03T09:17:29;24.90;67.40
10121;DHT22;5100;45.176;5.714;2022-09-03T09:20:09;25.00;67.50
10121;DHT22;5100;45.176;5.714;2022-09-03T09:22:45;25.00;67.50
10121;DHT22;5100;45.176;5.714;2022-09-03T09:25:17;25.10;67.60
10121;DHT22;5100;45.176;5.714;2022-09-03T09:30:37;25.20;67.60
10121;DHT22;5100;45.176;5.714;2022-09-03T09:33:03;25.30;67.40
10121;DHT22;5100;45.176;5.714;2022-09-03T09:35:29;25.30;67.20
10121;DHT22;5100;45.176;5.714;2022-09-03T09:37:57;25.40;67.10
10121;DHT22;5100;45.176;5.714;2022-09-03T09:40:37;25.40;67.00
10121;DHT22;5100;45.176;5.714;2022-09-03T09:43:12;25.50;66.80
10121;DHT22;5100;45.176;5.714;2022-09-03T09:45:40;25.50;66.40
10121;DHT22;5100;45.176;5.714;2022-09-03T09:48:30;25.60;66.40
10121;DHT22;5100;45.176;5.714;2022-09-03T09:51:20;25.60;66.30
10121;DHT22;5100;45.176;5.714;2022-09-03T09:53:58;25.70;66.50
10121;DHT22;5100;45.176;5.714;2022-09-03T09:56:25;25.70;66.50
10121;DHT22;5100;45.176;5.714;2022-09-03T09:59:06;25.70;65.60
10121;DHT22;5100;45.176;5.714;2022-09-03T10:01:33;25.70;65.10
10121;DHT22;5100;45.176;5.714;2022-09-03T10:04:27;25.80;65.10
10121;DHT22;5100;45.176;5.714;2022-09-03T10:06:56;25.80;64.60
10121;DHT22;5100;45.176;5.714;2022-09-03T10:09:28;25.80;65.00
10121;DHT22;5100;45.176;5.714;2022-09-03T10:14:27;25.80;65.10
10121;DHT22;5100;45.176;5.714;2022-09-03T10:23:05;25.90;65.00
10121;DHT22;5100;45.176;5.714;2022-09-03T10:28:06;25.90;64.70
10121;DHT22;5100;45.176;5.714;2022-09-03T10:36:33;26.10;64.30
10121;DHT22;5100;45.176;5.714;2022-09-03T10:39:09;26.10;64.10
10121;DHT22;5100;45.176;5.714;2022-09-03T10:41:57;26.10;63.60
10121;DHT22;5100;45.176;5.714;2022-09-03T10:50:12;26.20;63.70
10121;DHT22;5100;45.176;5.714;2022-09-03T10:52:55;26.30;63.30
10121;DHT22;5100;45.176;5.714;2022-09-03T11:01:09;26.30;63.10
10121;DHT22;5100;45.176;5.714;2022-09-03T11:04:13;26.30;62.50
10121;DHT22;5100;45.176;5.714;2022-09-03T11:06:53;26.30;62.10
10121;DHT22;5100;45.176;5.714;2022-09-03T11:09:48;26.30;62.40
10121;DHT22;5100;45.176;5.714;2022-09-03T11:12:23;26.30;62.40
10121;DHT22;5100;45.176;5.714;2022-09-03T11:14:58;26.30;62.40
10121;DHT22;5100;45.176;5.714;2022-09-03T11:17:28;26.30;62.30
10121;DHT22;5100;45.176;5.714;2022-09-03T11:20:22;26.30;62.40
10121;DHT22;5100;45.176;5.714;2022-09-03T11:22:52;26.30;62.00
10121;DHT22;5100;45.176;5.714;2022-09-03T11:25:20;26.30;62.20
10121;DHT22;5100;45.176;5.714;2022-09-03T11:28:12;26.30;62.00
10121;DHT22;5100;45.176;5.714;2022-09-03T11:31:09;26.30;61.50
10121;DHT22;5100;45.176;5.714;2022-09-03T11:33:46;26.30;62.00
10121;DHT22;5100;45.176;5.714;2022-09-03T11:36:28;26.30;62.00
10121;DHT22;5100;45.176;5.714;2022-09-03T11:38:54;26.20;61.70
10121;DHT22;5100;45.176;5.714;2022-09-03T11:41:33;26.20;62.20
10121;DHT22;5100;45.176;5.714;2022-09-03T11:44:19;26.20;62.10
10121;DHT22;5100;45.176;5.714;2022-09-03T11:46:56;26.20;62.00
10121;DHT22;5100;45.176;5.714;2022-09-03T11:49:32;26.20;62.20
10121;DHT22;5100;45.176;5.714;2022-09-03T11:52:08;26.20;62.20
10121;DHT22;5100;45.176;5.714;2022-09-03T11:54:43;26.20;62.40
10121;DHT22;5100;45.176;5.714;2022-09-03T11:57:26;26.20;62.30
10121;DHT22;5100;45.176;5.714;2022-09-03T11:59:54;26.20;62.40
10121;DHT22;5100;45.176;5.714;2022-09-03T12:02:41;26.10;62.70
10121;DHT22;5100;45.176;5.714;2022-09-03T12:08:03;26.20;62.60
10121;DHT22;5100;45.176;5.714;2022-09-03T12:10:55;26.20;62.70
10121;DHT22;5100;45.176;5.714;2022-09-03T12:13:30;26.20;62.90
10121;DHT22;5100;45.176;5.714;2022-09-03T12:16:24;26.20;63.10
10121;DHT22;5100;45.176;5.714;2022-09-03T12:19:03;26.20;63.10
10121;DHT22;5100;45.176;5.714;2022-09-03T12:21:38;26.20;63.20
10121;DHT22;5100;45.176;5.714;2022-09-03T12:24:10;26.30;63.00
10121;DHT22;5100;45.176;5.714;2022-09-03T12:26:40;26.30;62.80
10121;DHT22;5100;45.176;5.714;2022-09-03T12:29:24;26.30;63.00
10121;DHT22;5100;45.176;5.714;2022-09-03T12:31:50;26.30;63.10
10121;DHT22;5100;45.176;5.714;2022-09-03T12:34:18;26.30;63.40
10121;DHT22;5100;45.176;5.714;2022-09-03T12:36:53;26.30;63.50
10121;DHT22;5100;45.176;5.714;2022-09-03T12:39:27;26.30;63.60
10121;DHT22;5100;45.176;5.714;2022-09-03T12:42:05;26.30;63.60
10121;DHT22;5100;45.176;5.714;2022-09-03T12:47:02;26.40;63.70
10121;DHT22;5100;45.176;5.714;2022-09-03T12:49:36;26.40;63.70
10121;DHT22;5100;45.176;5.714;2022-09-03T12:52:30;26.40;63.50
10121;DHT22;5100;45.176;5.714;2022-09-03T12:55:23;26.50;63.10
10121;DHT22;5100;45.176;5.714;2022-09-03T12:57:58;26.50;62.20
10121;DHT22;5100;45.176;5.714;2022-09-03T13:00:29;26.50;62.20
10121;DHT22;5100;45.176;5.714;2022-09-03T13:03:20;26.50;62.10
10121;DHT22;5100;45.176;5.714;2022-09-03T13:05:53;26.50;62.10
10121;DHT22;5100;45.176;5.714;2022-09-03T13:08:23;26.50;62.10
10121;DHT22;5100;45.176;5.714;2022-09-03T13:10:54;26.60;61.90
10121;DHT22;5100;45.176;5.714;2022-09-03T13:13:29;26.60;61.90
10121;DHT22;5100;45.176;5.714;2022-09-03T13:18:43;26.70;61.60
10121;DHT22;5100;45.176;5.714;2022-09-03T13:24:36;26.80;61.00
10121;DHT22;5100;45.176;5.714;2022-09-03T13:27:28;26.90;60.80
10121;DHT22;5100;45.176;5.714;2022-09-03T13:33:01;27.00;60.70
10121;DHT22;5100;45.176;5.714;2022-09-03T13:35:39;27.00;60.60
10121;DHT22;5100;45.176;5.714;2022-09-03T13:38:38;27.10;60.50
10121;DHT22;5100;45.176;5.714;2022-09-03T13:43:47;27.20;59.80
10121;DHT22;5100;45.176;5.714;2022-09-03T13:49:02;27.20;59.60
10121;DHT22;5100;45.176;5.714;2022-09-03T13:51:57;27.20;59.40
10121;DHT22;5100;45.176;5.714;2022-09-03T13:54:30;27.20;59.40
10121;DHT22;5100;45.176;5.714;2022-09-03T13:57:04;27.20;59.70
10121;DHT22;5100;45.176;5.714;2022-09-03T13:59:53;27.20;59.70
10121;DHT22;5100;45.176;5.714;2022-09-03T14:08:04;27.30;60.00
10121;DHT22;5100;45.176;5.714;2022-09-03T14:10:53;27.30;60.20
10121;DHT22;5100;45.176;5.714;2022-09-03T14:21:43;27.30;60.40
10121;DHT22;5100;45.176;5.714;2022-09-03T14:24:35;27.30;60.30
10121;DHT22;5100;45.176;5.714;2022-09-03T14:27:06;27.30;60.50
10121;DHT22;5100;45.176;5.714;2022-09-03T14:29:34;27.30;60.40
10121;DHT22;5100;45.176;5.714;2022-09-03T14:32:18;27.30;60.30
10121;DHT22;5100;45.176;5.714;2022-09-03T14:34:53;27.30;60.20
10121;DHT22;5100;45.176;5.714;2022-09-03T14:40:21;27.20;60.40
10121;DHT22;5100;45.176;5.714;2022-09-03T14:43:15;27.20;60.50
10121;DHT22;5100;45.176;5.714;2022-09-03T14:48:47;27.20;60.40
10121;DHT22;5100;45.176;5.714;2022-09-03T14:54:35;27.10;61.30
10121;DHT22;5100;45.176;5.714;2022-09-03T14:57:38;27.10;60.80
10121;DHT22;5100;45.176;5.714;2022-09-03T15:00:20;27.10;60.70
10121;DHT22;5100;45.176;5.714;2022-09-03T15:11:31;27.00;60.50
10121;DHT22;5100;45.176;5.714;2022-09-03T15:24:31;27.10;60.40
10121;DHT22;5100;45.176;5.714;2022-09-03T15:29:50;27.00;60.50
10121;DHT22;5100;45.176;5.714;2022-09-03T15:37:56;27.10;60.80
10121;DHT22;5100;45.176;5.714;2022-09-03T15:40:50;27.00;60.80
10121;DHT22;5100;45.176;5.714;2022-09-03T15:43:32;27.00;60.90
10121;DHT22;5100;45.176;5.714;2022-09-03T15:46:08;27.00;60.90
10121;DHT22;5100;45.176;5.714;2022-09-03T15:48:49;27.00;60.90
10121;DHT22;5100;45.176;5.714;2022-09-03T15:51:34;27.00;60.90
10121;DHT22;5100;45.176;5.714;2022-09-03T15:58:06;27.00;61.10
10121;DHT22;5100;45.176;5.714;2022-09-03T16:05:45;27.00;61.00
10121;DHT22;5100;45.176;5.714;2022-09-03T16:08:32;27.00;60.70
10121;DHT22;5100;45.176;5.714;2022-09-03T16:11:20;27.00;60.70
10121;DHT22;5100;45.176;5.714;2022-09-03T16:14:11;27.00;60.70
10121;DHT22;5100;45.176;5.714;2022-09-03T16:17:04;27.00;60.70
10121;DHT22;5100;45.176;5.714;2022-09-03T16:19:45;27.10;60.60
10121;DHT22;5100;45.176;5.714;2022-09-03T16:25:07;27.10;60.70
10121;DHT22;5100;45.176;5.714;2022-09-03T16:30:34;27.10;60.60
10121;DHT22;5100;45.176;5.714;2022-09-03T16:35:54;27.20;60.40
10121;DHT22;5100;45.176;5.714;2022-09-03T16:38:37;27.20;60.50
10121;DHT22;5100;45.176;5.714;2022-09-03T16:41:32;27.10;60.60
10121;DHT22;5100;45.176;5.714;2022-09-03T16:47:28;27.20;60.50
10121;DHT22;5100;45.176;5.714;2022-09-03T17:10:51;27.10;60.80
10121;DHT22;5100;45.176;5.714;2022-09-03T17:16:10;27.10;61.00
10121;DHT22;5100;45.176;5.714;2022-09-03T17:21:17;27.10;61.10
10121;DHT22;5100;45.176;5.714;2022-09-03T17:49:26;26.90;62.10
10121;DHT22;5100;45.176;5.714;2022-09-03T17:57:18;26.90;61.90
10121;DHT22;5100;45.176;5.714;2022-09-03T17:59:51;26.80;61.50
10121;DHT22;5100;45.176;5.714;2022-09-03T18:02:39;26.80;61.50
10121;DHT22;5100;45.176;5.714;2022-09-03T18:05:28;26.80;61.50
10121;DHT22;5100;45.176;5.714;2022-09-03T18:08:13;26.80;61.70
10121;DHT22;5100;45.176;5.714;2022-09-03T18:14:16;26.80;61.90
10121;DHT22;5100;45.176;5.714;2022-09-03T18:22:25;26.70;62.40
10121;DHT22;5100;45.176;5.714;2022-09-03T18:25:13;26.70;62.70
10121;DHT22;5100;45.176;5.714;2022-09-03T18:28:05;26.70;62.90
10121;DHT22;5100;45.176;5.714;2022-09-03T18:30:50;26.60;63.30
10121;DHT22;5100;45.176;5.714;2022-09-03T18:33:35;26.60;63.50
10121;DHT22;5100;45.176;5.714;2022-09-03T18:36:20;26.60;63.40
10121;DHT22;5100;45.176;5.714;2022-09-03T18:39:13;26.60;62.70
10121;DHT22;5100;45.176;5.714;2022-09-03T18:48:21;26.50;60.50
10121;DHT22;5100;45.176;5.714;2022-09-03T18:55:08;26.40;61.40
10121;DHT22;5100;45.176;5.714;2022-09-03T18:58:30;26.40;61.40
10121;DHT22;5100;45.176;5.714;2022-09-03T19:01:39;26.30;61.20
10121;DHT22;5100;45.176;5.714;2022-09-03T19:07:44;26.20;61.60
10121;DHT22;5100;45.176;5.714;2022-09-03T19:10:43;26.10;62.10
10121;DHT22;5100;45.176;5.714;2022-09-03T19:13:36;26.00;62.80
10121;DHT22;5100;45.176;5.714;2022-09-03T19:22:44;25.80;66.10
10121;DHT22;5100;45.176;5.714;2022-09-03T19:25:29;25.70;66.30
10121;DHT22;5100;45.176;5.714;2022-09-03T19:28:19;25.60;66.00
10121;DHT22;5100;45.176;5.714;2022-09-03T19:34:22;25.40;67.20
10121;DHT22;5100;45.176;5.714;2022-09-03T19:43:37;25.10;68.40
10121;DHT22;5100;45.176;5.714;2022-09-03T19:52:31;24.80;69.00
10121;DHT22;5100;45.176;5.714;2022-09-03T19:55:25;24.80;70.90
10121;DHT22;5100;45.176;5.714;2022-09-03T19:58:18;24.70;71.50
10121;DHT22;5100;45.176;5.714;2022-09-03T20:01:03;24.60;71.10
10121;DHT22;5100;45.176;5.714;2022-09-03T20:03:49;24.60;71.80
10121;DHT22;5100;45.176;5.714;2022-09-03T20:06:35;24.60;72.30
10121;DHT22;5100;45.176;5.714;2022-09-03T20:09:25;24.60;72.30
10121;DHT22;5100;45.176;5.714;2022-09-03T20:12:12;24.50;72.30
10121;DHT22;5100;45.176;5.714;2022-09-03T20:14:41;24.50;72.30
10121;DHT22;5100;45.176;5.714;2022-09-03T20:37:18;24.40;72.60
10121;DHT22;5100;45.176;5.714;2022-09-03T20:42:34;24.30;72.40
10121;DHT22;5100;45.176;5.714;2022-09-03T20:45:17;24.30;72.50
10121;DHT22;5100;45.176;5.714;2022-09-03T20:48:03;24.30;71.40
10121;DHT22;5100;45.176;5.714;2022-09-03T20:56:18;24.30;72.20
10121;DHT22;5100;45.176;5.714;2022-09-03T20:59:11;24.30;73.00
10121;DHT22;5100;45.176;5.714;2022-09-03T21:01:55;24.20;72.90
10121;DHT22;5100;45.176;5.714;2022-09-03T21:04:50;24.20;73.50
10121;DHT22;5100;45.176;5.714;2022-09-03T21:07:32;24.20;73.40
10121;DHT22;5100;45.176;5.714;2022-09-03T21:10:27;24.20;73.20
10121;DHT22;5100;45.176;5.714;2022-09-03T21:21:54;24.10;73.30
10121;DHT22;5100;45.176;5.714;2022-09-03T21:24:28;24.10;73.40
10121;DHT22;5100;45.176;5.714;2022-09-03T21:27:00;24.10;73.60
10121;DHT22;5100;45.176;5.714;2022-09-03T21:29:45;24.10;74.00
10121;DHT22;5100;45.176;5.714;2022-09-03T21:32:28;24.10;74.20
10121;DHT22;5100;45.176;5.714;2022-09-03T21:37:38;24.00;73.30
10121;DHT22;5100;45.176;5.714;2022-09-03T21:40:08;24.00;73.10
10121;DHT22;5100;45.176;5.714;2022-09-03T21:42:43;24.00;72.90
10121;DHT22;5100;45.176;5.714;2022-09-03T21:45:38;24.00;73.50
10121;DHT22;5100;45.176;5.714;2022-09-03T21:48:11;24.00;74.10
10121;DHT22;5100;45.176;5.714;2022-09-03T21:50:44;23.90;74.30
10121;DHT22;5100;45.176;5.714;2022-09-03T21:53:29;23.90;74.00
10121;DHT22;5100;45.176;5.714;2022-09-03T21:56:12;23.90;73.80
10121;DHT22;5100;45.176;5.714;2022-09-03T21:59:00;23.90;74.10
10121;DHT22;5100;45.176;5.714;2022-09-03T22:01:43;23.90;74.30
10121;DHT22;5100;45.176;5.714;2022-09-03T22:04:11;23.90;74.50